KCAO/CAO METAR and TAF weather

Enter ICAO airport designator
Station Type Date Time Source
KCAO METAR 2020/03/31 21:55 UTC NOAA

KCAO 312155Z AUTO 20016G27KT 10SM CLR 20/M07 A2995 RMK AO2 PK WND 20029/2120 SLP107 T02001067


Station Type Date Time Source
KCAO Decoded METAR 2020/03/31 21:55 UTC NOAA

CLAYTON MUNICIPAL AIRPARK, NM, United States (KCAO) 36-27N 103-09W 1514M
Mar 31, 2020 - 05:55 PM EDT / 2020.03.31 2155 UTC
Wind: from the SSW (200 degrees) at 18 MPH (16 KT) gusting to 31 MPH (27 KT):0
Visibility: 10 mile(s):0
Sky conditions: clear
Temperature: 68.0 F (20.0 C)
Dew Point: 19.9 F (-6.7 C)
Relative Humidity: 15%
Pressure (altimeter): 29.95 in. Hg (1014 hPa)
ob: KCAO 312155Z AUTO 20016G27KT 10SM CLR 20/M07 A2995 RMK AO2 PK WND 20029/2120 SLP107 T02001067
cycle: 22

Station Type Date Time Source
KCAO TAF UTC NOAA

Error!

Example: see airport list